sensor_id;sensor_type;location;lat;lon;timestamp;pressure;altitude;pressure_sealevel;temperature;humidity
13974;BME280;7060;43.770;4.008;2023-06-22T00:00:38;100874.50;;;22.30;68.00
13974;BME280;7060;43.770;4.008;2023-06-22T00:03:11;100866.97;;;22.32;68.48
13974;BME280;7060;43.770;4.008;2023-06-22T00:05:40;100870.09;;;22.36;68.46
13974;BME280;7060;43.770;4.008;2023-06-22T00:08:09;100861.69;;;22.37;68.15
13974;BME280;7060;43.770;4.008;2023-06-22T00:10:38;100858.97;;;22.37;68.24
13974;BME280;7060;43.770;4.008;2023-06-22T00:13:07;100858.13;;;22.37;67.97
13974;BME280;7060;43.770;4.008;2023-06-22T00:15:38;100857.53;;;22.35;68.02
13974;BME280;7060;43.770;4.008;2023-06-22T00:18:09;100849.13;;;22.36;67.36
13974;BME280;7060;43.770;4.008;2023-06-22T00:20:39;100842.22;;;22.34;67.11
13974;BME280;7060;43.770;4.008;2023-06-22T00:23:08;100841.41;;;22.33;66.99
13974;BME280;7060;43.770;4.008;2023-06-22T00:25:38;100834.06;;;22.34;66.22
13974;BME280;7060;43.770;4.008;2023-06-22T00:28:08;100836.59;;;22.28;66.41
13974;BME280;7060;43.770;4.008;2023-06-22T00:30:39;100835.16;;;22.26;66.51
13974;BME280;7060;43.770;4.008;2023-06-22T00:33:08;100843.41;;;22.19;66.96
13974;BME280;7060;43.770;4.008;2023-06-22T00:35:40;100835.03;;;22.14;67.05
13974;BME280;7060;43.770;4.008;2023-06-22T00:38:10;100825.63;;;22.10;67.04
13974;BME280;7060;43.770;4.008;2023-06-22T00:40:41;100824.84;;;22.03;67.24
13974;BME280;7060;43.770;4.008;2023-06-22T00:43:10;100836.84;;;21.95;67.23
13974;BME280;7060;43.770;4.008;2023-06-22T00:45:39;100845.69;;;21.84;68.00
13974;BME280;7060;43.770;4.008;2023-06-22T00:48:09;100841.28;;;21.77;68.62
13974;BME280;7060;43.770;4.008;2023-06-22T00:50:40;100850.50;;;21.76;68.63
13974;BME280;7060;43.770;4.008;2023-06-22T00:53:09;100846.53;;;21.72;69.27
13974;BME280;7060;43.770;4.008;2023-06-22T00:55:41;100841.53;;;21.69;69.26
13974;BME280;7060;43.770;4.008;2023-06-22T00:58:13;100833.63;;;21.60;69.53
13974;BME280;7060;43.770;4.008;2023-06-22T01:00:42;100833.63;;;21.54;69.84
13974;BME280;7060;43.770;4.008;2023-06-22T01:03:11;100834.28;;;21.49;69.43
13974;BME280;7060;43.770;4.008;2023-06-22T01:08:23;100786.66;;;21.34;68.73
13974;BME280;7060;43.770;4.008;2023-06-22T01:11:03;100832.34;;;21.63;68.40
13974;BME280;7060;43.770;4.008;2023-06-22T01:13:38;100831.31;;;21.57;67.98
13974;BME280;7060;43.770;4.008;2023-06-22T01:16:14;100834.50;;;21.48;68.45
13974;BME280;7060;43.770;4.008;2023-06-22T01:18:47;100834.53;;;21.41;68.26
13974;BME280;7060;43.770;4.008;2023-06-22T01:21:22;100828.09;;;21.29;68.42
13974;BME280;7060;43.770;4.008;2023-06-22T01:24:01;100829.97;;;21.28;68.42
13974;BME280;7060;43.770;4.008;2023-06-22T01:26:38;100856.94;;;21.30;68.78
13974;BME280;7060;43.770;4.008;2023-06-22T01:29:11;100866.16;;;21.29;69.53
13974;BME280;7060;43.770;4.008;2023-06-22T01:31:42;100789.47;;;20.74;69.35
13974;BME280;7060;43.770;4.008;2023-06-22T01:34:12;100865.13;;;21.23;69.73
13974;BME280;7060;43.770;4.008;2023-06-22T01:36:43;100891.03;;;21.26;70.08
13974;BME280;7060;43.770;4.008;2023-06-22T01:39:13;100864.28;;;21.29;70.01
13974;BME280;7060;43.770;4.008;2023-06-22T01:41:42;100899.63;;;21.36;70.16
13974;BME280;7060;43.770;4.008;2023-06-22T01:44:16;100907.31;;;21.46;70.31
13974;BME280;7060;43.770;4.008;2023-06-22T01:46:45;100901.25;;;21.50;70.69
13974;BME280;7060;43.770;4.008;2023-06-22T01:49:15;100890.78;;;21.54;71.14
13974;BME280;7060;43.770;4.008;2023-06-22T01:51:44;100925.28;;;21.53;71.56
13974;BME280;7060;43.770;4.008;2023-06-22T01:54:13;100923.59;;;21.66;71.37
13974;BME280;7060;43.770;4.008;2023-06-22T01:56:42;100901.19;;;21.70;71.40
13974;BME280;7060;43.770;4.008;2023-06-22T01:59:16;100904.72;;;21.77;71.13
13974;BME280;7060;43.770;4.008;2023-06-22T02:02:03;100909.75;;;21.80;70.90
13974;BME280;7060;43.770;4.008;2023-06-22T02:04:36;100911.41;;;21.75;71.14
13974;BME280;7060;43.770;4.008;2023-06-22T02:07:10;100931.50;;;21.93;70.38
13974;BME280;7060;43.770;4.008;2023-06-22T02:09:43;100926.88;;;21.94;70.43
13974;BME280;7060;43.770;4.008;2023-06-22T02:12:13;100832.41;;;21.43;70.87
13974;BME280;7060;43.770;4.008;2023-06-22T02:14:48;100923.94;;;21.95;70.82
13974;BME280;7060;43.770;4.008;2023-06-22T02:17:19;100937.34;;;21.97;70.75
13974;BME280;7060;43.770;4.008;2023-06-22T02:19:48;100944.00;;;22.01;71.10
13974;BME280;7060;43.770;4.008;2023-06-22T02:22:17;100933.94;;;22.02;71.11
13974;BME280;7060;43.770;4.008;2023-06-22T02:24:46;100929.78;;;21.99;71.04
13974;BME280;7060;43.770;4.008;2023-06-22T02:27:15;100922.22;;;22.01;71.14
13974;BME280;7060;43.770;4.008;2023-06-22T02:29:44;100902.94;;;22.03;71.40
13974;BME280;7060;43.770;4.008;2023-06-22T02:32:14;100912.34;;;22.07;71.54
13974;BME280;7060;43.770;4.008;2023-06-22T02:34:46;100910.88;;;22.11;71.35
13974;BME280;7060;43.770;4.008;2023-06-22T02:37:15;100930.53;;;22.19;71.56
13974;BME280;7060;43.770;4.008;2023-06-22T02:39:44;100927.38;;;22.22;71.12
13974;BME280;7060;43.770;4.008;2023-06-22T02:42:13;100924.59;;;22.29;71.38
13974;BME280;7060;43.770;4.008;2023-06-22T02:44:42;100919.75;;;22.31;71.38
13974;BME280;7060;43.770;4.008;2023-06-22T02:47:13;100920.38;;;22.33;71.16
13974;BME280;7060;43.770;4.008;2023-06-22T02:49:42;100917.44;;;22.35;71.26
13974;BME280;7060;43.770;4.008;2023-06-22T02:52:12;100893.97;;;22.34;71.13
13974;BME280;7060;43.770;4.008;2023-06-22T02:54:41;100878.06;;;22.30;71.65
13974;BME280;7060;43.770;4.008;2023-06-22T02:57:13;100880.81;;;22.30;71.26
13974;BME280;7060;43.770;4.008;2023-06-22T02:59:43;100884.75;;;22.35;71.15
13974;BME280;7060;43.770;4.008;2023-06-22T03:02:14;100893.13;;;22.40;71.18
13974;BME280;7060;43.770;4.008;2023-06-22T03:04:43;100888.28;;;22.42;71.40
13974;BME280;7060;43.770;4.008;2023-06-22T03:07:16;100875.50;;;22.42;71.42
13974;BME280;7060;43.770;4.008;2023-06-22T03:09:46;100873.38;;;22.44;71.18
13974;BME280;7060;43.770;4.008;2023-06-22T03:12:16;100862.94;;;22.41;71.52
13974;BME280;7060;43.770;4.008;2023-06-22T03:14:50;100893.34;;;22.38;71.52
13974;BME280;7060;43.770;4.008;2023-06-22T03:17:21;100917.19;;;22.43;71.07
13974;BME280;7060;43.770;4.008;2023-06-22T03:19:50;100912.38;;;22.45;71.21
13974;BME280;7060;43.770;4.008;2023-06-22T03:22:20;100853.94;;;22.41;71.78
13974;BME280;7060;43.770;4.008;2023-06-22T03:24:49;100854.59;;;22.36;71.54
13974;BME280;7060;43.770;4.008;2023-06-22T03:27:18;100898.56;;;22.40;71.73
13974;BME280;7060;43.770;4.008;2023-06-22T03:29:47;100936.09;;;22.38;72.08
13974;BME280;7060;43.770;4.008;2023-06-22T03:32:16;100912.59;;;22.43;72.05
13974;BME280;7060;43.770;4.008;2023-06-22T03:34:46;100898.75;;;22.45;72.19
13974;BME280;7060;43.770;4.008;2023-06-22T03:37:16;100899.84;;;22.37;72.39
13974;BME280;7060;43.770;4.008;2023-06-22T03:39:45;100903.59;;;22.36;72.38
13974;BME280;7060;43.770;4.008;2023-06-22T03:42:15;100924.97;;;22.39;72.87
13974;BME280;7060;43.770;4.008;2023-06-22T03:44:44;100906.13;;;22.38;72.83
13974;BME280;7060;43.770;4.008;2023-06-22T03:47:13;100906.56;;;22.35;72.83
13974;BME280;7060;43.770;4.008;2023-06-22T03:49:42;100926.66;;;22.34;73.25
13974;BME280;7060;43.770;4.008;2023-06-22T03:52:12;100916.41;;;22.36;72.72
13974;BME280;7060;43.770;4.008;2023-06-22T03:54:41;100894.41;;;22.30;72.97
13974;BME280;7060;43.770;4.008;2023-06-22T03:57:10;100891.75;;;22.24;73.51
13974;BME280;7060;43.770;4.008;2023-06-22T03:59:38;100913.75;;;22.22;73.60
13974;BME280;7060;43.770;4.008;2023-06-22T04:02:08;100939.25;;;22.28;73.00
13974;BME280;7060;43.770;4.008;2023-06-22T04:04:37;100925.44;;;22.29;73.11
13974;BME280;7060;43.770;4.008;2023-06-22T04:07:07;100915.81;;;22.27;73.15
13974;BME280;7060;43.770;4.008;2023-06-22T04:09:38;100927.53;;;22.27;72.72
13974;BME280;7060;43.770;4.008;2023-06-22T04:12:07;100909.16;;;22.23;73.29
13974;BME280;7060;43.770;4.008;2023-06-22T04:14:36;100911.41;;;22.26;73.47
13974;BME280;7060;43.770;4.008;2023-06-22T04:17:05;100912.50;;;22.25;73.42
13974;BME280;7060;43.770;4.008;2023-06-22T04:19:34;100910.00;;;22.23;73.24
13974;BME280;7060;43.770;4.008;2023-06-22T04:22:03;100903.25;;;22.26;73.33
13974;BME280;7060;43.770;4.008;2023-06-22T04:24:34;100894.47;;;22.24;73.14
13974;BME280;7060;43.770;4.008;2023-06-22T04:27:05;100896.19;;;22.18;73.18
13974;BME280;7060;43.770;4.008;2023-06-22T04:29:34;100897.66;;;22.14;72.98
13974;BME280;7060;43.770;4.008;2023-06-22T04:32:04;100904.16;;;22.13;73.30
13974;BME280;7060;43.770;4.008;2023-06-22T04:34:33;100902.50;;;22.12;73.03
13974;BME280;7060;43.770;4.008;2023-06-22T04:37:02;100912.34;;;22.13;72.71
13974;BME280;7060;43.770;4.008;2023-06-22T04:39:31;100898.31;;;22.10;72.79
13974;BME280;7060;43.770;4.008;2023-06-22T04:42:00;100888.91;;;22.06;72.53
13974;BME280;7060;43.770;4.008;2023-06-22T04:44:31;100882.41;;;22.07;72.69
13974;BME280;7060;43.770;4.008;2023-06-22T04:47:01;100870.50;;;22.01;72.66
13974;BME280;7060;43.770;4.008;2023-06-22T04:49:31;100889.09;;;22.11;72.18
13974;BME280;7060;43.770;4.008;2023-06-22T04:52:03;100888.66;;;22.14;72.42
13974;BME280;7060;43.770;4.008;2023-06-22T04:54:34;100898.50;;;22.15;72.14
13974;BME280;7060;43.770;4.008;2023-06-22T04:57:05;100898.06;;;22.18;72.15
13974;BME280;7060;43.770;4.008;2023-06-22T04:59:39;100908.31;;;22.22;72.33
13974;BME280;7060;43.770;4.008;2023-06-22T05:02:11;100914.97;;;22.26;71.86
13974;BME280;7060;43.770;4.008;2023-06-22T05:04:40;100920.66;;;22.25;72.71
13974;BME280;7060;43.770;4.008;2023-06-22T05:07:09;100929.06;;;22.23;72.77
13974;BME280;7060;43.770;4.008;2023-06-22T05:09:38;100922.97;;;22.21;72.90
13974;BME280;7060;43.770;4.008;2023-06-22T05:12:08;100922.97;;;22.21;73.12
13974;BME280;7060;43.770;4.008;2023-06-22T05:14:40;100923.38;;;22.25;73.09
13974;BME280;7060;43.770;4.008;2023-06-22T05:17:09;100926.13;;;22.25;73.17
13974;BME280;7060;43.770;4.008;2023-06-22T05:19:42;100940.50;;;22.32;73.30
13974;BME280;7060;43.770;4.008;2023-06-22T05:22:14;100939.00;;;22.43;72.75
13974;BME280;7060;43.770;4.008;2023-06-22T05:24:44;100936.84;;;22.51;73.00
13974;BME280;7060;43.770;4.008;2023-06-22T05:27:13;100915.22;;;22.56;73.05
13974;BME280;7060;43.770;4.008;2023-06-22T05:29:43;100902.66;;;22.55;73.04
13974;BME280;7060;43.770;4.008;2023-06-22T05:32:12;100897.22;;;22.55;73.46
13974;BME280;7060;43.770;4.008;2023-06-22T05:34:42;100903.47;;;22.62;73.18
13974;BME280;7060;43.770;4.008;2023-06-22T05:37:11;100916.00;;;22.70;72.88
13974;BME280;7060;43.770;4.008;2023-06-22T05:39:40;100945.25;;;22.81;73.01
13974;BME280;7060;43.770;4.008;2023-06-22T05:42:09;100952.72;;;22.92;72.96
13974;BME280;7060;43.770;4.008;2023-06-22T05:44:38;100956.41;;;23.05;73.13
13974;BME280;7060;43.770;4.008;2023-06-22T05:47:09;100956.91;;;23.20;72.76
13974;BME280;7060;43.770;4.008;2023-06-22T05:49:38;100963.34;;;23.32;72.58
13974;BME280;7060;43.770;4.008;2023-06-22T05:52:07;100932.13;;;23.46;72.43
13974;BME280;7060;43.770;4.008;2023-06-22T05:54:38;100929.09;;;23.54;71.76
13974;BME280;7060;43.770;4.008;2023-06-22T05:57:09;100942.75;;;23.54;71.59
13974;BME280;7060;43.770;4.008;2023-06-22T05:59:37;100968.97;;;23.55;71.13
13974;BME280;7060;43.770;4.008;2023-06-22T06:02:06;100988.09;;;23.55;71.06
13974;BME280;7060;43.770;4.008;2023-06-22T06:04:37;100979.66;;;23.57;70.90
13974;BME280;7060;43.770;4.008;2023-06-22T06:07:06;101006.75;;;23.58;70.82
13974;BME280;7060;43.770;4.008;2023-06-22T06:09:34;101006.88;;;23.63;70.66
13974;BME280;7060;43.770;4.008;2023-06-22T06:12:06;100981.63;;;23.68;70.71
13974;BME280;7060;43.770;4.008;2023-06-22T06:14:35;100963.75;;;23.72;70.92
13974;BME280;7060;43.770;4.008;2023-06-22T06:17:04;100982.41;;;23.75;70.90
13974;BME280;7060;43.770;4.008;2023-06-22T06:19:33;100986.59;;;23.78;71.13
13974;BME280;7060;43.770;4.008;2023-06-22T06:22:04;100933.19;;;23.82;71.19
13974;BME280;7060;43.770;4.008;2023-06-22T06:24:33;100958.59;;;23.82;71.51
13974;BME280;7060;43.770;4.008;2023-06-22T06:27:01;100955.66;;;23.84;72.03
13974;BME280;7060;43.770;4.008;2023-06-22T06:29:32;100971.81;;;23.85;72.27
13974;BME280;7060;43.770;4.008;2023-06-22T06:32:01;100980.13;;;23.90;72.42
13974;BME280;7060;43.770;4.008;2023-06-22T06:34:30;100965.59;;;23.96;72.71
13974;BME280;7060;43.770;4.008;2023-06-22T06:36:59;100998.31;;;24.03;72.84
13974;BME280;7060;43.770;4.008;2023-06-22T06:39:29;100985.41;;;24.10;72.44
13974;BME280;7060;43.770;4.008;2023-06-22T06:41:58;100969.63;;;24.12;72.27
13974;BME280;7060;43.770;4.008;2023-06-22T06:44:27;100972.13;;;24.14;72.03
13974;BME280;7060;43.770;4.008;2023-06-22T06:46:56;100964.75;;;24.14;71.89
13974;BME280;7060;43.770;4.008;2023-06-22T06:49:25;100972.13;;;24.14;71.73
13974;BME280;7060;43.770;4.008;2023-06-22T06:51:54;100976.75;;;24.13;71.54
13974;BME280;7060;43.770;4.008;2023-06-22T06:54:23;100975.22;;;24.17;71.49
13974;BME280;7060;43.770;4.008;2023-06-22T06:56:53;100964.81;;;24.26;71.39
13974;BME280;7060;43.770;4.008;2023-06-22T06:59:22;100939.94;;;24.46;71.33
13974;BME280;7060;43.770;4.008;2023-06-22T07:01:51;100949.19;;;24.63;69.58
13974;BME280;7060;43.770;4.008;2023-06-22T07:04:20;100950.91;;;24.87;68.97
13974;BME280;7060;43.770;4.008;2023-06-22T07:06:49;100956.53;;;25.27;68.08
13974;BME280;7060;43.770;4.008;2023-06-22T07:09:19;100968.59;;;25.50;66.45
13974;BME280;7060;43.770;4.008;2023-06-22T07:11:47;100977.16;;;25.65;66.15
13974;BME280;7060;43.770;4.008;2023-06-22T07:14:20;100986.66;;;25.86;65.99
13974;BME280;7060;43.770;4.008;2023-06-22T07:16:49;100995.25;;;26.01;64.72
13974;BME280;7060;43.770;4.008;2023-06-22T07:19:24;101003.81;;;26.05;64.23
13974;BME280;7060;43.770;4.008;2023-06-22T07:21:54;101015.09;;;26.08;63.66
13974;BME280;7060;43.770;4.008;2023-06-22T07:24:23;101008.47;;;26.04;63.79
13974;BME280;7060;43.770;4.008;2023-06-22T07:26:52;101006.41;;;26.11;63.64
13974;BME280;7060;43.770;4.008;2023-06-22T07:29:23;100996.72;;;26.32;62.46
13974;BME280;7060;43.770;4.008;2023-06-22T07:31:52;100986.38;;;26.62;60.88
13974;BME280;7060;43.770;4.008;2023-06-22T07:34:23;100983.25;;;26.87;60.55
13974;BME280;7060;43.770;4.008;2023-06-22T07:36:53;100971.13;;;27.00;58.96
13974;BME280;7060;43.770;4.008;2023-06-22T07:39:22;100971.44;;;27.04;58.62
13974;BME280;7060;43.770;4.008;2023-06-22T07:41:53;100973.38;;;27.03;58.58
13974;BME280;7060;43.770;4.008;2023-06-22T07:44:23;100992.50;;;27.15;58.34
13974;BME280;7060;43.770;4.008;2023-06-22T07:46:52;100983.03;;;27.22;57.32
13974;BME280;7060;43.770;4.008;2023-06-22T07:49:21;100999.75;;;27.21;57.50
13974;BME280;7060;43.770;4.008;2023-06-22T07:51:50;101000.22;;;27.18;56.96
13974;BME280;7060;43.770;4.008;2023-06-22T07:54:19;100988.75;;;27.04;57.06
13974;BME280;7060;43.770;4.008;2023-06-22T07:56:48;100982.25;;;26.93;57.55
13974;BME280;7060;43.770;4.008;2023-06-22T07:59:17;100974.94;;;26.82;58.16
13974;BME280;7060;43.770;4.008;2023-06-22T08:01:47;100983.25;;;26.87;58.06
13974;BME280;7060;43.770;4.008;2023-06-22T08:04:18;100990.75;;;27.09;58.42
13974;BME280;7060;43.770;4.008;2023-06-22T08:06:47;100979.13;;;27.35;58.16
13974;BME280;7060;43.770;4.008;2023-06-22T08:09:16;100970.75;;;27.63;56.62
13974;BME280;7060;43.770;4.008;2023-06-22T08:11:45;100962.00;;;27.83;56.29
13974;BME280;7060;43.770;4.008;2023-06-22T08:14:13;100957.47;;;27.94;54.98
13974;BME280;7060;43.770;4.008;2023-06-22T08:16:42;100962.00;;;28.05;55.73
13974;BME280;7060;43.770;4.008;2023-06-22T08:19:13;100933.69;;;28.26;54.83
13974;BME280;7060;43.770;4.008;2023-06-22T08:21:42;100920.69;;;28.44;53.84
13974;BME280;7060;43.770;4.008;2023-06-22T08:24:10;100916.38;;;28.53;53.86
13974;BME280;7060;43.770;4.008;2023-06-22T08:26:40;100915.22;;;28.76;52.94
13974;BME280;7060;43.770;4.008;2023-06-22T08:29:09;100902.25;;;29.03;52.55
13974;BME280;7060;43.770;4.008;2023-06-22T08:31:38;100899.38;;;29.25;52.19
13974;BME280;7060;43.770;4.008;2023-06-22T08:34:08;100904.41;;;29.43;51.81
13974;BME280;7060;43.770;4.008;2023-06-22T08:36:38;100914.03;;;29.36;50.85
13974;BME280;7060;43.770;4.008;2023-06-22T08:39:12;100914.03;;;29.36;51.12
13974;BME280;7060;43.770;4.008;2023-06-22T08:41:41;100913.50;;;29.44;51.06
13974;BME280;7060;43.770;4.008;2023-06-22T08:44:09;100924.00;;;29.47;50.59
13974;BME280;7060;43.770;4.008;2023-06-22T08:46:38;100946.78;;;29.37;50.38
13974;BME280;7060;43.770;4.008;2023-06-22T08:49:08;100957.50;;;29.28;50.89
13974;BME280;7060;43.770;4.008;2023-06-22T08:51:39;100970.34;;;29.18;50.90
13974;BME280;7060;43.770;4.008;2023-06-22T08:54:08;100972.78;;;29.14;51.26
13974;BME280;7060;43.770;4.008;2023-06-22T08:56:37;100973.66;;;29.20;51.00
13974;BME280;7060;43.770;4.008;2023-06-22T08:59:07;100969.59;;;29.27;50.65
13974;BME280;7060;43.770;4.008;2023-06-22T09:01:37;100973.50;;;29.32;50.64
13974;BME280;7060;43.770;4.008;2023-06-22T09:04:06;100965.59;;;29.45;50.89
13974;BME280;7060;43.770;4.008;2023-06-22T09:06:39;100971.50;;;29.59;50.30
13974;BME280;7060;43.770;4.008;2023-06-22T09:09:13;100973.75;;;29.72;50.60
13974;BME280;7060;43.770;4.008;2023-06-22T09:11:43;100979.06;;;29.84;50.15
13974;BME280;7060;43.770;4.008;2023-06-22T09:14:12;100982.41;;;29.86;48.67
13974;BME280;7060;43.770;4.008;2023-06-22T09:16:41;100985.69;;;29.83;48.29
13974;BME280;7060;43.770;4.008;2023-06-22T09:19:10;100994.69;;;29.63;48.12
13974;BME280;7060;43.770;4.008;2023-06-22T09:21:43;100981.22;;;29.35;47.84
13974;BME280;7060;43.770;4.008;2023-06-22T09:24:13;100980.47;;;29.12;48.72
13974;BME280;7060;43.770;4.008;2023-06-22T09:26:42;100986.81;;;29.08;49.09
13974;BME280;7060;43.770;4.008;2023-06-22T09:29:12;100981.97;;;29.25;49.04
13974;BME280;7060;43.770;4.008;2023-06-22T09:31:41;100964.50;;;29.46;49.99
13974;BME280;7060;43.770;4.008;2023-06-22T09:34:10;100977.84;;;29.64;49.52
13974;BME280;7060;43.770;4.008;2023-06-22T09:36:40;100983.44;;;29.75;50.02
13974;BME280;7060;43.770;4.008;2023-06-22T09:39:11;100981.88;;;29.89;48.75
13974;BME280;7060;43.770;4.008;2023-06-22T09:41:40;100983.00;;;29.98;48.82
13974;BME280;7060;43.770;4.008;2023-06-22T09:44:08;100984.13;;;30.02;48.08
13974;BME280;7060;43.770;4.008;2023-06-22T09:46:37;100985.22;;;30.01;47.73
13974;BME280;7060;43.770;4.008;2023-06-22T09:49:06;100984.66;;;29.99;47.84
13974;BME280;7060;43.770;4.008;2023-06-22T09:51:35;100997.84;;;29.92;47.48
13974;BME280;7060;43.770;4.008;2023-06-22T09:54:04;100996.97;;;29.81;47.99
13974;BME280;7060;43.770;4.008;2023-06-22T09:56:35;101001.56;;;29.66;48.17
13974;BME280;7060;43.770;4.008;2023-06-22T09:59:06;100999.19;;;29.47;48.78
13974;BME280;7060;43.770;4.008;2023-06-22T10:01:45;100995.78;;;29.30;49.74
13974;BME280;7060;43.770;4.008;2023-06-22T10:04:14;100995.38;;;29.16;50.17
13974;BME280;7060;43.770;4.008;2023-06-22T10:06:43;100989.41;;;28.97;50.52
13974;BME280;7060;43.770;4.008;2023-06-22T10:09:12;100988.22;;;28.88;51.41
13974;BME280;7060;43.770;4.008;2023-06-22T10:11:42;100987.66;;;28.86;51.67
13974;BME280;7060;43.770;4.008;2023-06-22T10:14:11;100987.91;;;28.85;52.00
13974;BME280;7060;43.770;4.008;2023-06-22T10:16:40;100989.25;;;28.82;52.63
13974;BME280;7060;43.770;4.008;2023-06-22T10:19:09;100984.38;;;28.89;52.46
13974;BME280;7060;43.770;4.008;2023-06-22T10:21:38;100985.22;;;28.90;52.71
13974;BME280;7060;43.770;4.008;2023-06-22T10:24:06;100983.25;;;28.85;52.82
13974;BME280;7060;43.770;4.008;2023-06-22T10:26:37;100992.50;;;28.74;53.15
13974;BME280;7060;43.770;4.008;2023-06-22T10:29:07;100990.22;;;28.66;53.05
13974;BME280;7060;43.770;4.008;2023-06-22T10:31:40;100990.41;;;28.59;53.58
13974;BME280;7060;43.770;4.008;2023-06-22T10:34:09;100997.81;;;28.54;53.69
13974;BME280;7060;43.770;4.008;2023-06-22T10:36:38;100985.91;;;28.48;53.16
13974;BME280;7060;43.770;4.008;2023-06-22T10:39:07;100975.81;;;28.54;53.09
13974;BME280;7060;43.770;4.008;2023-06-22T10:41:36;100959.44;;;28.69;53.07
13974;BME280;7060;43.770;4.008;2023-06-22T10:44:05;100941.69;;;28.87;52.82
13974;BME280;7060;43.770;4.008;2023-06-22T10:46:35;100936.13;;;29.04;52.01
13974;BME280;7060;43.770;4.008;2023-06-22T10:49:04;100946.09;;;29.15;51.61
13974;BME280;7060;43.770;4.008;2023-06-22T10:51:33;100952.38;;;29.10;50.82
13974;BME280;7060;43.770;4.008;2023-06-22T10:54:01;100955.50;;;28.92;51.18
13974;BME280;7060;43.770;4.008;2023-06-22T10:56:31;100984.00;;;28.76;51.62
13974;BME280;7060;43.770;4.008;2023-06-22T10:59:01;101026.13;;;28.54;52.28
13974;BME280;7060;43.770;4.008;2023-06-22T11:01:30;101060.25;;;28.37;52.75
13974;BME280;7060;43.770;4.008;2023-06-22T11:04:04;101086.91;;;28.14;53.56
13974;BME280;7060;43.770;4.008;2023-06-22T11:06:34;101114.75;;;27.68;50.02
13974;BME280;7060;43.770;4.008;2023-06-22T11:09:03;101097.47;;;27.22;48.52
13974;BME280;7060;43.770;4.008;2023-06-22T11:11:51;101096.88;;;26.63;47.53
13974;BME280;7060;43.770;4.008;2023-06-22T11:14:21;101105.44;;;26.03;48.45
13974;BME280;7060;43.770;4.008;2023-06-22T11:16:51;101103.06;;;25.53;50.28
13974;BME280;7060;43.770;4.008;2023-06-22T11:19:21;101085.69;;;25.06;50.83
13974;BME280;7060;43.770;4.008;2023-06-22T11:21:50;101113.88;;;24.77;52.73
13974;BME280;7060;43.770;4.008;2023-06-22T11:24:19;101120.19;;;24.41;55.75
13974;BME280;7060;43.770;4.008;2023-06-22T11:26:48;101114.22;;;24.07;57.96
13974;BME280;7060;43.770;4.008;2023-06-22T11:29:18;101103.84;;;23.66;60.85
13974;BME280;7060;43.770;4.008;2023-06-22T11:32:04;101126.69;;;23.09;63.58
13974;BME280;7060;43.770;4.008;2023-06-22T11:34:34;101144.91;;;22.77;64.68
13974;BME280;7060;43.770;4.008;2023-06-22T11:37:03;101126.94;;;22.56;65.78
13974;BME280;7060;43.770;4.008;2023-06-22T11:39:33;101121.13;;;22.33;66.70
13974;BME280;7060;43.770;4.008;2023-06-22T11:42:09;101160.09;;;22.26;67.42
13974;BME280;7060;43.770;4.008;2023-06-22T11:44:38;101176.47;;;22.20;68.31
13974;BME280;7060;43.770;4.008;2023-06-22T11:47:07;101184.22;;;22.23;67.98
13974;BME280;7060;43.770;4.008;2023-06-22T11:49:39;101161.81;;;22.21;67.40
13974;BME280;7060;43.770;4.008;2023-06-22T11:52:09;101155.09;;;22.10;68.23
13974;BME280;7060;43.770;4.008;2023-06-22T11:54:37;101143.19;;;21.91;68.64
13974;BME280;7060;43.770;4.008;2023-06-22T11:57:07;101152.19;;;21.79;68.89
13974;BME280;7060;43.770;4.008;2023-06-22T11:59:35;101148.00;;;21.70;68.56
13974;BME280;7060;43.770;4.008;2023-06-22T12:02:05;101153.81;;;21.53;69.21
13974;BME280;7060;43.770;4.008;2023-06-22T12:04:35;101173.88;;;21.33;69.58
13974;BME280;7060;43.770;4.008;2023-06-22T12:07:06;101190.56;;;21.23;69.58
13974;BME280;7060;43.770;4.008;2023-06-22T12:09:35;101195.56;;;21.13;69.80
13974;BME280;7060;43.770;4.008;2023-06-22T12:12:04;101195.94;;;21.03;69.13
13974;BME280;7060;43.770;4.008;2023-06-22T12:14:33;101190.88;;;21.00;69.71
13974;BME280;7060;43.770;4.008;2023-06-22T12:17:02;101199.91;;;21.01;69.70
13974;BME280;7060;43.770;4.008;2023-06-22T12:19:31;101199.75;;;21.09;69.58
13974;BME280;7060;43.770;4.008;2023-06-22T12:22:00;101201.44;;;21.23;69.30
13974;BME280;7060;43.770;4.008;2023-06-22T12:24:31;101191.25;;;21.38;68.47
13974;BME280;7060;43.770;4.008;2023-06-22T12:26:59;101180.38;;;21.45;68.54
13974;BME280;7060;43.770;4.008;2023-06-22T12:29:30;101189.41;;;21.65;68.36
13974;BME280;7060;43.770;4.008;2023-06-22T12:31:59;101183.59;;;21.81;66.93
13974;BME280;7060;43.770;4.008;2023-06-22T12:34:28;101184.00;;;21.98;68.47
13974;BME280;7060;43.770;4.008;2023-06-22T12:36:57;101184.41;;;22.35;69.24
13974;BME280;7060;43.770;4.008;2023-06-22T12:39:26;101179.75;;;22.68;69.56
13974;BME280;7060;43.770;4.008;2023-06-22T12:41:56;101195.16;;;22.94;70.57
13974;BME280;7060;43.770;4.008;2023-06-22T12:44:25;101189.16;;;23.17;71.35
13974;BME280;7060;43.770;4.008;2023-06-22T12:46:54;101192.44;;;23.39;70.70
13974;BME280;7060;43.770;4.008;2023-06-22T12:49:23;101201.78;;;23.56;70.21
13974;BME280;7060;43.770;4.008;2023-06-22T12:51:52;101200.44;;;23.65;69.23
13974;BME280;7060;43.770;4.008;2023-06-22T12:54:21;101205.06;;;23.64;69.27
13974;BME280;7060;43.770;4.008;2023-06-22T12:56:50;101197.38;;;23.55;68.94
13974;BME280;7060;43.770;4.008;2023-06-22T12:59:22;101196.41;;;23.43;69.67
13974;BME280;7060;43.770;4.008;2023-06-22T13:01:51;101186.53;;;23.42;70.08
13974;BME280;7060;43.770;4.008;2023-06-22T13:04:20;101187.56;;;23.47;70.88
13974;BME280;7060;43.770;4.008;2023-06-22T13:06:49;101184.16;;;23.58;70.15
13974;BME280;7060;43.770;4.008;2023-06-22T13:09:19;101175.53;;;23.61;69.56
13974;BME280;7060;43.770;4.008;2023-06-22T13:11:48;101179.63;;;23.71;70.46
13974;BME280;7060;43.770;4.008;2023-06-22T13:14:17;101184.78;;;23.85;70.36
13974;BME280;7060;43.770;4.008;2023-06-22T13:16:47;101183.19;;;24.03;70.04